Sunflower Hakata — JL6711 — position and weather

sailwx.info

Track history (hours):
 
Tides and Currents Weather Stations Pressure Air Temp Water Temp Dewpoint Dewpoint Depression Visibility Wind Speed Wind Dir Waves Ship Positions

Sunflower Hakata

Last reported at 2015-Jul-30 17:28 UTC. Time now 2015-Jul-31 17:25 UTC.
Position N 34°29' E 138°32'.

Length 167 m; draft 6.5 m.

Type: Cargo ship. MMSI: 431501764.

Date/timePositionNaut miles runAvg speedWind from/ knotsBaromVisibWave heightAir tempDewpointWater temp
2015-Jul-30 17:28N 34°29' E 138°32'3718.7
2015-Jul-30 15:30N 34°45' E 139°12'1919.7
2015-Jul-30 14:33N 34°58' E 139°29'2020.1
2015-Jul-30 13:34N 35°12' E 139°46'1414.3
2015-Jul-30 12:34N 35°27' E 139°46'1010.4
2015-Jul-30 11:33N 35°37' E 139°48'0 0.0
2015-Jul-30 10:33N 35°37' E 139°48'0 0.0
2015-Jul-30 09:33N 35°37' E 139°48'0 0.0
2015-Jul-30 08:32N 35°37' E 139°48'0 0.0
2015-Jul-30 07:33N 35°37' E 139°48'0 0.0
2015-Jul-30 06:33N 35°37' E 139°48'0 0.0
2015-Jul-30 05:33N 35°37' E 139°48'0 0.0
2015-Jul-30 04:33N 35°37' E 139°48'0 0.0
2015-Jul-30 03:34N 35°37' E 139°48'0 0.0
2015-Jul-30 02:33N 35°37' E 139°48'0 0.0
2015-Jul-30 01:33N 35°37' E 139°48'0 0.0
2015-Jul-30 00:33N 35°37' E 139°48'0 0.0
2015-Jul-29 23:33N 35°37' E 139°48'0 0.0
2015-Jul-29 22:33N 35°37' E 139°48'0 0.0
2015-Jul-29 21:33N 35°37' E 139°48'0 0.0
2015-Jul-29 20:33N 35°37' E 139°48'5 4.9
2015-Jul-29 19:33N 35°33' E 139°51'1515.5
2015-Jul-29 18:34N 35°19' E 139°44'1515.3
2015-Jul-29 17:34N 35°04' E 139°43'2221.3
2015-Jul-29 16:32N 34°51' E 139°21'6520.2
2015-Jul-29 13:19N 34°16' E 138°15'16417.9
2015-Jul-29 04:10N 33°53' E 134°59'1320.9
2015-Jul-29 03:33N 34°06' E 134°59'2222.2
2015-Jul-29 02:33N 34°28' E 135°01'1414.1
2015-Jul-29 01:33N 34°34' E 134°45'19713.8
2015-Jul-28 11:19N 34°00' E 130°51'1620.9
2015-Jul-28 10:33N 33°58' E 130°32'2121.1
2015-Jul-28 09:33N 33°42' E 130°16'8 8.1
2015-Jul-28 08:33N 33°38' E 130°24'0 0.0
2015-Jul-28 07:32N 33°38' E 130°24'0 0.0
2015-Jul-28 06:33N 33°38' E 130°24'0 0.0
2015-Jul-28 05:33N 33°38' E 130°24'0 0.0
2015-Jul-28 04:30N 33°38' E 130°24'0 0.0
2015-Jul-28 03:32N 33°38' E 130°24'0 0.0
2015-Jul-28 02:33N 33°38' E 130°24'0 0.0
2015-Jul-28 01:33N 33°38' E 130°24'0 0.0
2015-Jul-28 00:33N 33°38' E 130°24'0 0.0
2015-Jul-27 23:30N 33°38' E 130°24'0 0.1
2015-Jul-27 22:33N 33°37' E 130°24'0 0.0
2015-Jul-27 21:33N 33°37' E 130°24'0 0.0
2015-Jul-27 20:33N 33°37' E 130°24'0 0.0
2015-Jul-27 19:33N 33°37' E 130°24'0 0.0
2015-Jul-27 18:33N 33°37' E 130°24'0 0.0
2015-Jul-27 17:33N 33°37' E 130°24'0 0.0
2015-Jul-27 16:33N 33°37' E 130°24'0 0.0
2015-Jul-27 15:33N 33°37' E 130°24'0 0.0
2015-Jul-27 14:32N 33°37' E 130°24'0 0.0
2015-Jul-27 13:33N 33°37' E 130°24'0 0.0
2015-Jul-27 12:32N 33°37' E 130°24'0 0.0
2015-Jul-27 11:33N 33°37' E 130°24'0 0.0
2015-Jul-27 10:33N 33°37' E 130°24'0 0.0
2015-Jul-27 09:33N 33°37' E 130°24'0 0.0
2015-Jul-27 08:33N 33°37' E 130°24'0 0.0
2015-Jul-27 07:33N 33°37' E 130°24'0 0.0
2015-Jul-27 06:33N 33°37' E 130°24'0 0.0
2015-Jul-27 05:33N 33°37' E 130°24'0 0.0
2015-Jul-27 04:33N 33°37' E 130°24'0 0.0
2015-Jul-27 03:27N 33°37' E 130°24'0 0.0
2015-Jul-27 02:33N 33°37' E 130°24'0 0.0
2015-Jul-27 01:32N 33°37' E 130°24'0 0.0
2015-Jul-27 00:33N 33°37' E 130°24'0 0.0
2015-Jul-26 23:33N 33°37' E 130°24'0 0.0
2015-Jul-26 22:33N 33°37' E 130°24'0 0.0
2015-Jul-26 21:33N 33°37' E 130°24'0 0.0
2015-Jul-26 20:32N 33°37' E 130°24'6 6.4
2015-Jul-26 19:33N 33°40' E 130°17'1817.5
2015-Jul-26 18:33N 33°56' E 130°23'1917.8
2015-Jul-26 17:28N 34°03' E 130°45'38715.9
2015-Jul-25 17:12N 34°29' E 138°32'5218.3
2015-Jul-25 14:22N 34°56' E 139°25'1619.8
2015-Jul-25 13:33N 35°06' E 139°41'1414.0
2015-Jul-25 12:33N 35°20' E 139°43'1817.5
2015-Jul-25 11:33N 35°36' E 139°50'2 2.3
2015-Jul-25 10:34N 35°37' E 139°48'0 0.0
2015-Jul-25 09:33N 35°37' E 139°48'0 0.0
2015-Jul-25 08:34N 35°37' E 139°48'0 0.0
2015-Jul-25 07:33N 35°37' E 139°48'0 0.0
2015-Jul-25 06:33N 35°37' E 139°48'0 0.0
2015-Jul-25 05:34N 35°37' E 139°48'0 0.0
2015-Jul-25 04:34N 35°37' E 139°48'0 0.0
2015-Jul-25 03:33N 35°37' E 139°48'0 0.0
2015-Jul-25 02:33N 35°37' E 139°48'0 0.0
2015-Jul-25 01:31N 35°37' E 139°48'0 0.0
2015-Jul-25 00:30N 35°37' E 139°48'0 0.0
2015-Jul-24 23:34N 35°37' E 139°48'0 0.0
2015-Jul-24 22:31N 35°37' E 139°48'0 0.0
2015-Jul-24 21:28N 35°37' E 139°48'0 0.0
2015-Jul-24 20:33N 35°37' E 139°48'5 5.4
2015-Jul-24 19:34N 35°33' E 139°52'1515.4
2015-Jul-24 18:33N 35°19' E 139°44'1515.3
2015-Jul-24 17:33N 35°03' E 139°43'2321.4
2015-Jul-24 16:29N 34°50' E 139°20'22318.7
2015-Jul-24 04:33N 33°55' E 134°59'2121.0
2015-Jul-24 03:33N 34°16' E 134°58'2120.5
2015-Jul-24 02:33N 34°36' E 135°02'23314.3
2015-Jul-23 10:12N 33°56' E 130°24'1522.8
2015-Jul-23 09:34N 33°43' E 130°16'8 8.4
2015-Jul-23 08:33N 33°38' E 130°24'0 0.0
2015-Jul-23 07:34N 33°38' E 130°24'0 0.0
2015-Jul-23 06:33N 33°38' E 130°24'0 0.0
2015-Jul-23 05:31N 33°38' E 130°24'0 0.0
2015-Jul-23 04:31N 33°38' E 130°24'0 0.0
2015-Jul-23 03:13N 33°38' E 130°24'0 0.0
2015-Jul-23 02:25N 33°38' E 130°24'0 0.0
2015-Jul-23 01:30N 33°38' E 130°24'0 0.0
2015-Jul-23 00:30N 33°38' E 130°24'0 0.0
2015-Jul-22 23:33N 33°38' E 130°24'0 0.0
2015-Jul-22 22:33N 33°38' E 130°24'0 0.0
2015-Jul-22 21:30N 33°38' E 130°24'0 0.0
2015-Jul-22 20:33N 33°38' E 130°24'8 7.6
2015-Jul-22 19:33N 33°41' E 130°16'45716.1
2015-Jul-21 15:07N 34°54' E 139°22'1018.5
2015-Jul-21 14:33N 34°60' E 139°32'1817.9
2015-Jul-21 13:33N 35°14' E 139°46'1414.3
2015-Jul-21 12:33N 35°28' E 139°48'9 9.3
2015-Jul-21 11:34N 35°37' E 139°48'0 0.0
2015-Jul-21 10:34N 35°37' E 139°48'0 0.0
2015-Jul-21 09:34N 35°37' E 139°48'0 0.0
2015-Jul-21 08:33N 35°37' E 139°48'0 0.0
2015-Jul-21 07:33N 35°37' E 139°48'0 0.0
2015-Jul-21 06:33N 35°37' E 139°48'0 0.0
2015-Jul-21 05:30N 35°37' E 139°48'0 0.0
2015-Jul-21 04:30N 35°37' E 139°48'0 0.0
2015-Jul-21 03:33N 35°37' E 139°48'0 0.0
2015-Jul-21 02:30N 35°37' E 139°48'0 0.0
2015-Jul-21 01:33N 35°37' E 139°48'0 0.0
2015-Jul-21 00:33N 35°37' E 139°48'0 0.0
2015-Jul-20 23:33N 35°37' E 139°48'0 0.2
2015-Jul-20 22:33N 35°37' E 139°48'0 0.0
2015-Jul-20 21:33N 35°37' E 139°48'0 0.0
2015-Jul-20 20:33N 35°37' E 139°48'0 0.0
2015-Jul-20 19:33N 35°37' E 139°48'0 0.0
2015-Jul-20 18:33N 35°37' E 139°48'0 0.0
2015-Jul-20 17:33N 35°37' E 139°48'  
Track history (hours):
 
Tides and Currents Weather Stations Pressure Air Temp Water Temp Dewpoint Dewpoint Depression Visibility Wind Speed Wind Dir Waves Ship Positions

Sunflower Hakata

Last reported at 2015-Jul-30 17:28 UTC. Time now 2015-Jul-31 17:25 UTC.
Position N 34°29' E 138°32'.

Length 167 m; draft 6.5 m.

Type: Cargo ship. MMSI: 431501764.

Date/timePositionNaut miles runAvg speedWind from/ knotsBaromVisibWave heightAir tempDewpointWater temp
2015-Jul-30 17:28N 34°29' E 138°32'3718.7
2015-Jul-30 15:30N 34°45' E 139°12'1919.7
2015-Jul-30 14:33N 34°58' E 139°29'2020.1
2015-Jul-30 13:34N 35°12' E 139°46'1414.3
2015-Jul-30 12:34N 35°27' E 139°46'1010.4
2015-Jul-30 11:33N 35°37' E 139°48'0 0.0
2015-Jul-30 10:33N 35°37' E 139°48'0 0.0
2015-Jul-30 09:33N 35°37' E 139°48'0 0.0
2015-Jul-30 08:32N 35°37' E 139°48'0 0.0
2015-Jul-30 07:33N 35°37' E 139°48'0 0.0
2015-Jul-30 06:33N 35°37' E 139°48'0 0.0
2015-Jul-30 05:33N 35°37' E 139°48'0 0.0
2015-Jul-30 04:33N 35°37' E 139°48'0 0.0
2015-Jul-30 03:34N 35°37' E 139°48'0 0.0
2015-Jul-30 02:33N 35°37' E 139°48'0 0.0
2015-Jul-30 01:33N 35°37' E 139°48'0 0.0
2015-Jul-30 00:33N 35°37' E 139°48'0 0.0
2015-Jul-29 23:33N 35°37' E 139°48'0 0.0
2015-Jul-29 22:33N 35°37' E 139°48'0 0.0
2015-Jul-29 21:33N 35°37' E 139°48'0 0.0
2015-Jul-29 20:33N 35°37' E 139°48'5 4.9
2015-Jul-29 19:33N 35°33' E 139°51'1515.5
2015-Jul-29 18:34N 35°19' E 139°44'1515.3
2015-Jul-29 17:34N 35°04' E 139°43'2221.3
2015-Jul-29 16:32N 34°51' E 139°21'6520.2
2015-Jul-29 13:19N 34°16' E 138°15'16417.9
2015-Jul-29 04:10N 33°53' E 134°59'1320.9
2015-Jul-29 03:33N 34°06' E 134°59'2222.2
2015-Jul-29 02:33N 34°28' E 135°01'1414.1
2015-Jul-29 01:33N 34°34' E 134°45'19713.8
2015-Jul-28 11:19N 34°00' E 130°51'1620.9
2015-Jul-28 10:33N 33°58' E 130°32'2121.1
2015-Jul-28 09:33N 33°42' E 130°16'8 8.1
2015-Jul-28 08:33N 33°38' E 130°24'0 0.0
2015-Jul-28 07:32N 33°38' E 130°24'0 0.0
2015-Jul-28 06:33N 33°38' E 130°24'0 0.0
2015-Jul-28 05:33N 33°38' E 130°24'0 0.0
2015-Jul-28 04:30N 33°38' E 130°24'0 0.0
2015-Jul-28 03:32N 33°38' E 130°24'0 0.0
2015-Jul-28 02:33N 33°38' E 130°24'0 0.0
2015-Jul-28 01:33N 33°38' E 130°24'0 0.0
2015-Jul-28 00:33N 33°38' E 130°24'0 0.0
2015-Jul-27 23:30N 33°38' E 130°24'0 0.1
2015-Jul-27 22:33N 33°37' E 130°24'0 0.0
2015-Jul-27 21:33N 33°37' E 130°24'0 0.0
2015-Jul-27 20:33N 33°37' E 130°24'0 0.0
2015-Jul-27 19:33N 33°37' E 130°24'0 0.0
2015-Jul-27 18:33N 33°37' E 130°24'0 0.0
2015-Jul-27 17:33N 33°37' E 130°24'0 0.0
2015-Jul-27 16:33N 33°37' E 130°24'0 0.0
2015-Jul-27 15:33N 33°37' E 130°24'0 0.0
2015-Jul-27 14:32N 33°37' E 130°24'0 0.0
2015-Jul-27 13:33N 33°37' E 130°24'0 0.0
2015-Jul-27 12:32N 33°37' E 130°24'0 0.0
2015-Jul-27 11:33N 33°37' E 130°24'0 0.0
2015-Jul-27 10:33N 33°37' E 130°24'0 0.0
2015-Jul-27 09:33N 33°37' E 130°24'0 0.0
2015-Jul-27 08:33N 33°37' E 130°24'0 0.0
2015-Jul-27 07:33N 33°37' E 130°24'0 0.0
2015-Jul-27 06:33N 33°37' E 130°24'0 0.0
2015-Jul-27 05:33N 33°37' E 130°24'0 0.0
2015-Jul-27 04:33N 33°37' E 130°24'0 0.0
2015-Jul-27 03:27N 33°37' E 130°24'0 0.0
2015-Jul-27 02:33N 33°37' E 130°24'0 0.0
2015-Jul-27 01:32N 33°37' E 130°24'0 0.0
2015-Jul-27 00:33N 33°37' E 130°24'0 0.0
2015-Jul-26 23:33N 33°37' E 130°24'0 0.0
2015-Jul-26 22:33N 33°37' E 130°24'0 0.0
2015-Jul-26 21:33N 33°37' E 130°24'0 0.0
2015-Jul-26 20:32N 33°37' E 130°24'6 6.4
2015-Jul-26 19:33N 33°40' E 130°17'1817.5
2015-Jul-26 18:33N 33°56' E 130°23'1917.8
2015-Jul-26 17:28N 34°03' E 130°45'38715.9
2015-Jul-25 17:12N 34°29' E 138°32'5218.3
2015-Jul-25 14:22N 34°56' E 139°25'1619.8
2015-Jul-25 13:33N 35°06' E 139°41'1414.0
2015-Jul-25 12:33N 35°20' E 139°43'1817.5
2015-Jul-25 11:33N 35°36' E 139°50'2 2.3
2015-Jul-25 10:34N 35°37' E 139°48'0 0.0
2015-Jul-25 09:33N 35°37' E 139°48'0 0.0
2015-Jul-25 08:34N 35°37' E 139°48'0 0.0
2015-Jul-25 07:33N 35°37' E 139°48'0 0.0
2015-Jul-25 06:33N 35°37' E 139°48'0 0.0
2015-Jul-25 05:34N 35°37' E 139°48'0 0.0
2015-Jul-25 04:34N 35°37' E 139°48'0 0.0
2015-Jul-25 03:33N 35°37' E 139°48'0 0.0
2015-Jul-25 02:33N 35°37' E 139°48'0 0.0
2015-Jul-25 01:31N 35°37' E 139°48'0 0.0
2015-Jul-25 00:30N 35°37' E 139°48'0 0.0
2015-Jul-24 23:34N 35°37' E 139°48'0 0.0
2015-Jul-24 22:31N 35°37' E 139°48'0 0.0
2015-Jul-24 21:28N 35°37' E 139°48'0 0.0
2015-Jul-24 20:33N 35°37' E 139°48'5 5.4
2015-Jul-24 19:34N 35°33' E 139°52'1515.4
2015-Jul-24 18:33N 35°19' E 139°44'1515.3
2015-Jul-24 17:33N 35°03' E 139°43'2321.4
2015-Jul-24 16:29N 34°50' E 139°20'22318.7
2015-Jul-24 04:33N 33°55' E 134°59'2121.0
2015-Jul-24 03:33N 34°16' E 134°58'2120.5
2015-Jul-24 02:33N 34°36' E 135°02'23314.3
2015-Jul-23 10:12N 33°56' E 130°24'1522.8
2015-Jul-23 09:34N 33°43' E 130°16'8 8.4
2015-Jul-23 08:33N 33°38' E 130°24'0 0.0
2015-Jul-23 07:34N 33°38' E 130°24'0 0.0
2015-Jul-23 06:33N 33°38' E 130°24'0 0.0
2015-Jul-23 05:31N 33°38' E 130°24'0 0.0
2015-Jul-23 04:31N 33°38' E 130°24'0 0.0
2015-Jul-23 03:13N 33°38' E 130°24'0 0.0
2015-Jul-23 02:25N 33°38' E 130°24'0 0.0
2015-Jul-23 01:30N 33°38' E 130°24'0 0.0
2015-Jul-23 00:30N 33°38' E 130°24'0 0.0
2015-Jul-22 23:33N 33°38' E 130°24'0 0.0
2015-Jul-22 22:33N 33°38' E 130°24'0 0.0
2015-Jul-22 21:30N 33°38' E 130°24'0 0.0
2015-Jul-22 20:33N 33°38' E 130°24'8 7.6
2015-Jul-22 19:33N 33°41' E 130°16'45716.1
2015-Jul-21 15:07N 34°54' E 139°22'1018.5
2015-Jul-21 14:33N 34°60' E 139°32'1817.9
2015-Jul-21 13:33N 35°14' E 139°46'1414.3
2015-Jul-21 12:33N 35°28' E 139°48'9 9.3
2015-Jul-21 11:34N 35°37' E 139°48'0 0.0
2015-Jul-21 10:34N 35°37' E 139°48'0 0.0
2015-Jul-21 09:34N 35°37' E 139°48'0 0.0
2015-Jul-21 08:33N 35°37' E 139°48'0 0.0
2015-Jul-21 07:33N 35°37' E 139°48'0 0.0
2015-Jul-21 06:33N 35°37' E 139°48'0 0.0
2015-Jul-21 05:30N 35°37' E 139°48'0 0.0
2015-Jul-21 04:30N 35°37' E 139°48'0 0.0
2015-Jul-21 03:33N 35°37' E 139°48'0 0.0
2015-Jul-21 02:30N 35°37' E 139°48'0 0.0
2015-Jul-21 01:33N 35°37' E 139°48'0 0.0
2015-Jul-21 00:33N 35°37' E 139°48'0 0.0
2015-Jul-20 23:33N 35°37' E 139°48'0 0.2
2015-Jul-20 22:33N 35°37' E 139°48'0 0.0
2015-Jul-20 21:33N 35°37' E 139°48'0 0.0
2015-Jul-20 20:33N 35°37' E 139°48'0 0.0
2015-Jul-20 19:33N 35°37' E 139°48'0 0.0
2015-Jul-20 18:33N 35°37' E 139°48'0 0.0
2015-Jul-20 17:33N 35°37' E 139°48'  

Dump ship's entire track history